sensor_id;sensor_type;location;lat;lon;timestamp;temperature;humidity
29303;DHT22;60019;45.556;12.004;2023-03-23T06:57:52;16.40;95.20
29303;DHT22;60019;45.556;12.004;2023-03-23T07:03:54;16.40;95.30
29303;DHT22;60019;45.556;12.004;2023-03-23T07:10:08;16.50;95.40
29303;DHT22;60019;45.556;12.004;2023-03-23T07:16:10;16.50;95.50
29303;DHT22;60019;45.556;12.004;2023-03-23T07:22:13;16.60;95.60
29303;DHT22;60019;45.556;12.004;2023-03-23T07:28:19;16.60;95.60
29303;DHT22;60019;45.556;12.004;2023-03-23T07:34:22;16.60;95.60
29303;DHT22;60019;45.556;12.004;2023-03-23T07:40:39;16.70;95.70
29303;DHT22;60019;45.556;12.004;2023-03-23T07:46:50;16.80;95.70
29303;DHT22;60019;45.556;12.004;2023-03-23T07:52:56;16.90;95.70
29303;DHT22;60019;45.556;12.004;2023-03-23T07:59:01;17.00;95.80
29303;DHT22;60019;45.556;12.004;2023-03-23T08:05:02;17.20;95.80
29303;DHT22;60019;45.556;12.004;2023-03-23T08:11:38;17.30;95.70
29303;DHT22;60019;45.556;12.004;2023-03-23T08:17:45;17.40;95.70
29303;DHT22;60019;45.556;12.004;2023-03-23T08:24:10;17.50;95.70
29303;DHT22;60019;45.556;12.004;2023-03-23T08:30:32;17.60;95.70
29303;DHT22;60019;45.556;12.004;2023-03-23T08:36:55;17.70;95.70
29303;DHT22;60019;45.556;12.004;2023-03-23T08:43:23;17.80;95.60
29303;DHT22;60019;45.556;12.004;2023-03-23T08:49:43;17.90;95.60
29303;DHT22;60019;45.556;12.004;2023-03-23T08:56:06;18.00;95.50
29303;DHT22;60019;45.556;12.004;2023-03-23T09:02:31;18.10;95.50
29303;DHT22;60019;45.556;12.004;2023-03-23T09:08:55;18.20;95.50
29303;DHT22;60019;45.556;12.004;2023-03-23T09:14:57;18.30;95.40
29303;DHT22;60019;45.556;12.004;2023-03-23T09:20:59;18.30;95.30
29303;DHT22;60019;45.556;12.004;2023-03-23T09:27:01;18.40;95.20
29303;DHT22;60019;45.556;12.004;2023-03-23T09:33:04;18.40;95.10
29303;DHT22;60019;45.556;12.004;2023-03-23T09:39:06;18.50;95.10
29303;DHT22;60019;45.556;12.004;2023-03-23T09:51:43;18.70;95.00
29303;DHT22;60019;45.556;12.004;2023-03-23T09:57:59;18.80;94.90
29303;DHT22;60019;45.556;12.004;2023-03-23T10:17:20;19.00;94.70
29303;DHT22;60019;45.556;12.004;2023-03-23T10:36:37;19.30;94.40
29303;DHT22;60019;45.556;12.004;2023-03-23T10:42:39;19.30;94.20
29303;DHT22;60019;45.556;12.004;2023-03-23T10:48:41;19.40;94.20
29303;DHT22;60019;45.556;12.004;2023-03-23T10:54:51;19.50;94.10
29303;DHT22;60019;45.556;12.004;2023-03-23T11:00:55;19.60;94.10
29303;DHT22;60019;45.556;12.004;2023-03-23T11:07:01;19.60;94.10
29303;DHT22;60019;45.556;12.004;2023-03-23T11:19:56;19.70;94.10
29303;DHT22;60019;45.556;12.004;2023-03-23T11:26:29;19.80;94.10
29303;DHT22;60019;45.556;12.004;2023-03-23T11:32:31;19.90;94.00
29303;DHT22;60019;45.556;12.004;2023-03-23T11:38:33;19.90;94.00
29303;DHT22;60019;45.556;12.004;2023-03-23T11:44:41;20.00;94.00
29303;DHT22;60019;45.556;12.004;2023-03-23T11:50:51;20.10;94.00
29303;DHT22;60019;45.556;12.004;2023-03-23T11:56:52;20.30;93.90
29303;DHT22;60019;45.556;12.004;2023-03-23T12:03:15;20.70;94.20
29303;DHT22;60019;45.556;12.004;2023-03-23T12:09:43;21.00;93.50
29303;DHT22;60019;45.556;12.004;2023-03-23T12:41:32;22.60;92.70
29303;DHT22;60019;45.556;12.004;2023-03-23T12:47:48;22.80;92.20
29303;DHT22;60019;45.556;12.004;2023-03-23T13:00:23;23.20;91.90
29303;DHT22;60019;45.556;12.004;2023-03-23T13:06:43;23.30;91.60
29303;DHT22;60019;45.556;12.004;2023-03-23T13:12:59;23.20;91.60
29303;DHT22;60019;45.556;12.004;2023-03-23T13:25:48;22.60;91.90
29303;DHT22;60019;45.556;12.004;2023-03-23T13:31:51;22.50;91.80
29303;DHT22;60019;45.556;12.004;2023-03-23T13:37:53;22.40;91.90
29303;DHT22;60019;45.556;12.004;2023-03-23T13:44:18;22.30;91.90
29303;DHT22;60019;45.556;12.004;2023-03-23T13:56:36;22.20;91.90
29303;DHT22;60019;45.556;12.004;2023-03-23T14:02:42;22.10;91.90
29303;DHT22;60019;45.556;12.004;2023-03-23T14:08:51;22.00;91.90
29303;DHT22;60019;45.556;12.004;2023-03-23T14:15:01;22.00;92.00
29303;DHT22;60019;45.556;12.004;2023-03-23T14:21:21;22.00;91.90
29303;DHT22;60019;45.556;12.004;2023-03-23T14:27:23;22.00;91.90
29303;DHT22;60019;45.556;12.004;2023-03-23T14:33:26;21.90;91.90
29303;DHT22;60019;45.556;12.004;2023-03-23T14:39:32;21.90;91.90
29303;DHT22;60019;45.556;12.004;2023-03-23T14:45:36;21.90;91.80
29303;DHT22;60019;45.556;12.004;2023-03-23T14:51:37;21.90;91.80
29303;DHT22;60019;45.556;12.004;2023-03-23T14:57:47;21.80;91.80
29303;DHT22;60019;45.556;12.004;2023-03-23T15:03:53;21.80;91.90
29303;DHT22;60019;45.556;12.004;2023-03-23T15:09:57;21.80;91.90
29303;DHT22;60019;45.556;12.004;2023-03-23T15:16:12;21.70;91.90
29303;DHT22;60019;45.556;12.004;2023-03-23T15:22:22;21.60;92.00
29303;DHT22;60019;45.556;12.004;2023-03-23T15:34:55;21.50;92.10
29303;DHT22;60019;45.556;12.004;2023-03-23T15:41:27;21.50;92.20
29303;DHT22;60019;45.556;12.004;2023-03-23T15:53:43;21.40;92.40
29303;DHT22;60019;45.556;12.004;2023-03-23T16:00:27;21.30;92.40
29303;DHT22;60019;45.556;12.004;2023-03-23T16:06:32;21.30;92.40
29303;DHT22;60019;45.556;12.004;2023-03-23T16:12:33;21.20;92.40
29303;DHT22;60019;45.556;12.004;2023-03-23T16:18:36;21.10;92.10
29303;DHT22;60019;45.556;12.004;2023-03-23T16:24:38;21.10;92.10
29303;DHT22;60019;45.556;12.004;2023-03-23T16:30:40;21.00;92.10
29303;DHT22;60019;45.556;12.004;2023-03-23T16:36:42;21.00;92.00
29303;DHT22;60019;45.556;12.004;2023-03-23T16:42:44;20.90;92.00
29303;DHT22;60019;45.556;12.004;2023-03-23T16:48:45;20.90;92.00
29303;DHT22;60019;45.556;12.004;2023-03-23T16:54:47;20.80;92.00
29303;DHT22;60019;45.556;12.004;2023-03-23T17:00:50;20.80;92.00
29303;DHT22;60019;45.556;12.004;2023-03-23T17:06:52;20.70;92.00
29303;DHT22;60019;45.556;12.004;2023-03-23T17:12:55;20.60;92.00
29303;DHT22;60019;45.556;12.004;2023-03-23T17:18:56;20.50;92.00
29303;DHT22;60019;45.556;12.004;2023-03-23T17:24:58;20.40;92.00
29303;DHT22;60019;45.556;12.004;2023-03-23T17:30:59;20.30;92.10
29303;DHT22;60019;45.556;12.004;2023-03-23T17:37:01;20.20;92.10
29303;DHT22;60019;45.556;12.004;2023-03-23T17:43:04;20.10;92.10
29303;DHT22;60019;45.556;12.004;2023-03-23T17:49:05;20.00;92.60
29303;DHT22;60019;45.556;12.004;2023-03-23T17:55:07;20.20;92.30
29303;DHT22;60019;45.556;12.004;2023-03-23T18:01:08;20.30;92.30
29303;DHT22;60019;45.556;12.004;2023-03-23T18:07:10;20.50;92.40
29303;DHT22;60019;45.556;12.004;2023-03-23T18:13:12;20.50;92.40
29303;DHT22;60019;45.556;12.004;2023-03-23T18:19:13;20.60;92.40
29303;DHT22;60019;45.556;12.004;2023-03-23T18:25:15;20.70;92.40
29303;DHT22;60019;45.556;12.004;2023-03-23T18:31:18;20.80;92.40
29303;DHT22;60019;45.556;12.004;2023-03-23T18:37:20;20.80;92.40
29303;DHT22;60019;45.556;12.004;2023-03-23T18:43:22;20.80;92.40
29303;DHT22;60019;45.556;12.004;2023-03-23T18:49:23;20.90;92.40
29303;DHT22;60019;45.556;12.004;2023-03-23T18:55:25;20.90;92.40
29303;DHT22;60019;45.556;12.004;2023-03-23T19:01:26;21.00;92.40
29303;DHT22;60019;45.556;12.004;2023-03-23T19:07:28;21.00;92.50
29303;DHT22;60019;45.556;12.004;2023-03-23T19:13:31;21.10;92.60
29303;DHT22;60019;45.556;12.004;2023-03-23T19:19:34;21.10;92.90
29303;DHT22;60019;45.556;12.004;2023-03-23T19:25:36;21.10;93.20
29303;DHT22;60019;45.556;12.004;2023-03-23T19:31:38;21.10;93.40
29303;DHT22;60019;45.556;12.004;2023-03-23T19:37:40;21.00;93.50
29303;DHT22;60019;45.556;12.004;2023-03-23T19:43:42;20.80;93.60
29303;DHT22;60019;45.556;12.004;2023-03-23T19:49:43;20.70;93.50
29303;DHT22;60019;45.556;12.004;2023-03-23T19:55:45;20.80;93.50
29303;DHT22;60019;45.556;12.004;2023-03-23T20:01:46;20.90;93.40
29303;DHT22;60019;45.556;12.004;2023-03-23T20:07:48;20.90;93.30
29303;DHT22;60019;45.556;12.004;2023-03-23T20:13:50;20.90;93.20
29303;DHT22;60019;45.556;12.004;2023-03-23T20:19:52;20.90;93.20
29303;DHT22;60019;45.556;12.004;2023-03-23T20:25:59;20.90;93.10
29303;DHT22;60019;45.556;12.004;2023-03-23T20:32:01;20.90;93.00
29303;DHT22;60019;45.556;12.004;2023-03-23T20:38:02;20.90;92.90
29303;DHT22;60019;45.556;12.004;2023-03-23T20:44:06;21.00;92.80
29303;DHT22;60019;45.556;12.004;2023-03-23T20:50:09;21.00;92.70
29303;DHT22;60019;45.556;12.004;2023-03-23T20:56:10;21.00;92.70
29303;DHT22;60019;45.556;12.004;2023-03-23T21:02:14;21.10;92.60
29303;DHT22;60019;45.556;12.004;2023-03-23T21:08:16;21.10;92.60
29303;DHT22;60019;45.556;12.004;2023-03-23T21:14:20;21.10;92.60
29303;DHT22;60019;45.556;12.004;2023-03-23T21:20:21;21.00;92.60
29303;DHT22;60019;45.556;12.004;2023-03-23T21:26:26;20.90;92.50
29303;DHT22;60019;45.556;12.004;2023-03-23T21:32:28;20.80;92.40
29303;DHT22;60019;45.556;12.004;2023-03-23T21:38:30;20.70;92.40
29303;DHT22;60019;45.556;12.004;2023-03-23T21:44:33;20.80;92.40
29303;DHT22;60019;45.556;12.004;2023-03-23T21:50:37;20.90;92.40
29303;DHT22;60019;45.556;12.004;2023-03-23T21:56:42;20.90;92.30
29303;DHT22;60019;45.556;12.004;2023-03-23T22:02:43;20.90;92.30
29303;DHT22;60019;45.556;12.004;2023-03-23T22:08:46;21.00;92.30
29303;DHT22;60019;45.556;12.004;2023-03-23T22:14:48;21.00;92.30
29303;DHT22;60019;45.556;12.004;2023-03-23T22:20:50;20.80;92.40
29303;DHT22;60019;45.556;12.004;2023-03-23T22:26:52;20.60;92.50
29303;DHT22;60019;45.556;12.004;2023-03-23T22:32:55;20.30;92.60
29303;DHT22;60019;45.556;12.004;2023-03-23T22:38:59;20.10;92.70
29303;DHT22;60019;45.556;12.004;2023-03-23T22:45:00;19.90;92.80
29303;DHT22;60019;45.556;12.004;2023-03-23T22:51:03;19.80;92.90
29303;DHT22;60019;45.556;12.004;2023-03-23T22:57:04;19.60;92.90
29303;DHT22;60019;45.556;12.004;2023-03-23T23:03:06;19.50;92.90
29303;DHT22;60019;45.556;12.004;2023-03-23T23:09:40;19.30;92.90
29303;DHT22;60019;45.556;12.004;2023-03-23T23:15:45;19.20;93.00
29303;DHT22;60019;45.556;12.004;2023-03-23T23:21:47;19.00;92.90
29303;DHT22;60019;45.556;12.004;2023-03-23T23:27:48;18.90;93.00
29303;DHT22;60019;45.556;12.004;2023-03-23T23:33:54;18.70;93.10
29303;DHT22;60019;45.556;12.004;2023-03-23T23:39:56;18.60;93.20
29303;DHT22;60019;45.556;12.004;2023-03-23T23:45:57;18.50;93.30
29303;DHT22;60019;45.556;12.004;2023-03-23T23:51:59;18.30;93.30
29303;DHT22;60019;45.556;12.004;2023-03-23T23:58:01;18.20;93.30
